Terminal Aerodrome Forecast
Issued by NWS

Home | Current Version | Previous Version | Text Only | Print | Product List | Glossary On
Versions: 1 2 3 4 5 6 7 8 9 10 11 12 13
000
FTUS44 KLIX 211132
TAFMCB
TAF
KMCB 211132Z 2112/2212 00000KT 5SM BR SKC
     FM211400 05004KT P6SM FEW020 FEW200
     FM211800 11005KT P6SM BKN045 BKN080
     FM220000 VRB03KT P6SM BKN080=

USA.gov is the U.S. government's official web portal to all federal, state and local government web resources and services.